Time;durP1;ratioP1;P1;durP2;ratioP2;P2;SDS_P1;SDS_P2;PMS_P1;PMS_P2;Temp;Humidity;BMP_temperature;BMP_pressure;BME280_temperature;BME280_humidity;BME280_pressure;Samples;Min_cycle;Max_cycle;Signal;HPM_P1;HPM_P2
2023/09/16 00:00:43;;;;;;;1.93;1.73;;;;;;;18.63;87.70;95398.22;4344709;32;20356;-63
2023/09/16 00:03:08;;;;;;;1.20;1.20;;;;;;;18.53;87.10;95396.75;4354848;32;20197;-64
2023/09/16 00:05:38;;;;;;;1.80;1.67;;;;;;;18.49;88.60;95403.97;4358917;32;20223;-64
2023/09/16 00:08:05;;;;;;;1.60;1.53;;;;;;;18.28;89.37;95406.81;4341181;32;20189;-64
2023/09/16 00:10:34;;;;;;;1.70;1.60;;;;;;;18.47;89.13;95404.28;4354430;32;20246;-64
2023/09/16 00:13:00;;;;;;;1.70;1.70;;;;;;;18.30;88.34;95399.19;4358080;32;20268;-64
2023/09/16 00:15:27;;;;;;;1.57;1.47;;;;;;;18.20;88.88;95397.75;4354154;32;20219;-64
2023/09/16 00:17:53;;;;;;;1.67;1.57;;;;;;;18.08;89.30;95405.06;4330844;32;20221;-64
2023/09/16 00:20:19;;;;;;;2.33;2.23;;;;;;;18.09;89.84;95398.56;4329133;32;20289;-64
2023/09/16 00:22:46;;;;;;;1.33;1.23;;;;;;;18.30;89.27;95401.88;4332020;32;20201;-64
2023/09/16 00:25:12;;;;;;;1.80;1.70;;;;;;;18.20;89.33;95402.34;4353369;32;20247;-64
2023/09/16 00:27:41;;;;;;;3.17;2.07;;;;;;;18.30;89.29;95404.56;4344875;32;20196;-63
2023/09/16 00:30:08;;;;;;;3.40;2.07;;;;;;;18.36;89.51;95399.72;4355389;32;20189;-63
2023/09/16 00:32:33;;;;;;;2.40;2.20;;;;;;;18.31;89.55;95405.34;4377249;32;20236;-64
2023/09/16 00:35:03;;;;;;;3.80;2.17;;;;;;;18.44;89.76;95399.59;4314971;32;20284;-64
2023/09/16 00:37:31;;;;;;;1.87;1.83;;;;;;;18.28;88.41;95397.97;4356483;32;20193;-65
2023/09/16 00:39:58;;;;;;;3.43;1.80;;;;;;;18.27;89.09;95396.41;4356931;32;20303;-64
2023/09/16 00:42:25;;;;;;;1.70;1.70;;;;;;;18.21;89.32;95398.53;4365544;32;20232;-64
2023/09/16 00:44:52;;;;;;;1.90;1.70;;;;;;;18.24;89.38;95395.19;4364037;32;20192;-64
2023/09/16 00:47:19;;;;;;;1.63;1.53;;;;;;;18.25;89.91;95391.38;4364096;32;20264;-64
2023/09/16 00:49:44;;;;;;;1.30;1.30;;;;;;;18.28;88.87;95388.03;4356837;32;20204;-64
2023/09/16 00:52:12;;;;;;;1.93;1.83;;;;;;;18.29;89.06;95383.44;4352624;32;20200;-64
2023/09/16 00:54:40;;;;;;;1.10;1.10;;;;;;;18.19;88.95;95387.34;4366647;32;20236;-63
2023/09/16 00:57:13;;;;;;;5.30;2.67;;;;;;;18.14;89.39;95384.91;4373637;32;20242;-64
2023/09/16 00:59:39;;;;;;;1.47;1.47;;;;;;;18.01;89.44;95391.44;4343980;32;20189;-64
2023/09/16 01:02:08;;;;;;;1.80;1.70;;;;;;;17.97;90.92;95393.22;4372866;32;20244;-64
2023/09/16 01:04:35;;;;;;;1.77;1.67;;;;;;;18.08;90.36;95400.47;4369114;32;20258;-64
2023/09/16 01:07:02;;;;;;;1.57;1.57;;;;;;;18.19;90.57;95403.47;4370066;32;20192;-64
2023/09/16 01:09:29;;;;;;;1.40;1.40;;;;;;;18.25;90.11;95404.81;4360404;32;20201;-64
2023/09/16 01:11:56;;;;;;;2.60;2.47;;;;;;;17.85;90.28;95412.81;4387005;32;20204;-64
2023/09/16 01:14:24;;;;;;;2.10;2.00;;;;;;;18.20;90.31;95411.19;4371651;32;20207;-64
2023/09/16 01:16:57;;;;;;;2.27;2.17;;;;;;;18.24;89.80;95403.25;4369302;32;20193;-64
2023/09/16 01:19:38;;;;;;;3.23;3.03;;;;;;;17.99;90.28;95401.72;4381934;32;20204;-64
2023/09/16 01:22:04;;;;;;;1.47;1.47;;;;;;;17.68;90.35;95395.03;4365560;32;20192;-64
2023/09/16 01:24:30;;;;;;;2.67;2.47;;;;;;;17.74;91.10;95393.69;4374037;32;20180;-64
2023/09/16 01:26:55;;;;;;;3.17;2.97;;;;;;;17.79;91.34;95393.47;4320509;32;20315;-64
2023/09/16 01:29:21;;;;;;;1.63;1.53;;;;;;;17.81;91.65;95391.22;4355147;32;20196;-64
2023/09/16 01:31:49;;;;;;;1.40;1.40;;;;;;;17.76;90.66;95382.63;4370894;32;20204;-64
2023/09/16 01:34:25;;;;;;;1.77;1.73;;;;;;;17.82;91.85;95379.38;4380589;32;20212;-64
2023/09/16 01:36:54;;;;;;;1.87;1.87;;;;;;;17.85;91.19;95381.41;4375854;32;20206;-64
2023/09/16 01:39:23;;;;;;;5.77;1.90;;;;;;;17.90;90.82;95383.03;4358267;32;20193;-64
2023/09/16 01:41:53;;;;;;;1.63;1.53;;;;;;;17.79;90.71;95377.38;4349574;32;20207;-64
2023/09/16 01:44:18;;;;;;;1.77;1.73;;;;;;;17.84;91.76;95379.03;4347081;32;20295;-64
2023/09/16 01:46:45;;;;;;;1.87;1.77;;;;;;;17.92;91.40;95380.81;4367958;32;20204;-64
2023/09/16 01:49:12;;;;;;;2.07;2.00;;;;;;;17.98;91.19;95373.31;4357692;32;20189;-64
2023/09/16 01:51:38;;;;;;;1.33;1.33;;;;;;;17.93;91.14;95384.28;4392767;32;20269;-63
2023/09/16 01:54:04;;;;;;;2.67;2.47;;;;;;;17.81;92.11;95380.50;4372970;32;20242;-64
2023/09/16 01:56:30;;;;;;;1.93;1.87;;;;;;;17.75;91.57;95381.84;4382299;32;20211;-64
2023/09/16 01:58:57;;;;;;;1.60;1.60;;;;;;;18.01;91.24;95378.00;4382809;32;20237;-64
2023/09/16 02:01:25;;;;;;;1.60;1.60;;;;;;;17.79;90.22;95377.38;4351025;32;20248;-64
2023/09/16 02:03:55;;;;;;;1.57;1.57;;;;;;;17.67;90.53;95371.22;4355183;32;20191;-64
2023/09/16 02:06:22;;;;;;;2.60;2.40;;;;;;;17.69;91.67;95377.03;4359023;32;20206;-65
2023/09/16 02:08:49;;;;;;;3.10;2.80;;;;;;;17.75;91.71;95376.47;4352948;32;20291;-65
2023/09/16 02:11:14;;;;;;;1.47;1.37;;;;;;;17.67;91.85;95380.03;4373541;32;20204;-64
2023/09/16 02:13:40;;;;;;;1.93;1.83;;;;;;;17.83;92.09;95378.25;4362858;32;20221;-64
2023/09/16 02:16:09;;;;;;;2.70;1.87;;;;;;;17.94;91.21;95381.25;4365019;32;20193;-65
2023/09/16 02:18:36;;;;;;;1.57;1.47;;;;;;;17.83;91.39;95378.25;4380995;32;20198;-64
2023/09/16 02:21:02;;;;;;;1.60;1.50;;;;;;;17.64;91.29;95391.47;4378245;32;20181;-64
2023/09/16 02:23:29;;;;;;;1.93;1.83;;;;;;;17.51;92.50;95390.66;4360029;32;20321;-64
2023/09/16 02:26:00;;;;;;;2.87;2.60;;;;;;;17.77;92.88;95382.28;4360401;32;20196;-64
2023/09/16 02:28:27;;;;;;;2.50;2.40;;;;;;;17.87;91.31;95389.13;4383674;32;20295;-64
2023/09/16 02:30:52;;;;;;;1.77;1.67;;;;;;;17.77;90.10;95382.28;4373444;32;20188;-64
2023/09/16 02:33:19;;;;;;;1.83;1.73;;;;;;;17.90;90.66;95379.56;4376541;32;20192;-64
2023/09/16 02:35:47;;;;;;;2.63;2.43;;;;;;;17.83;91.91;95383.63;4391346;32;20180;-64
2023/09/16 02:38:14;;;;;;;1.63;1.63;;;;;;;17.64;91.55;95383.44;4364778;32;20204;-64
2023/09/16 02:40:46;;;;;;;2.43;2.33;;;;;;;17.72;91.68;95382.50;4354618;32;20208;-64
2023/09/16 02:43:11;;;;;;;2.57;2.37;;;;;;;17.63;92.00;95389.09;4370218;32;20191;-64
2023/09/16 02:45:41;;;;;;;10.37;2.83;;;;;;;17.90;91.43;95385.72;4369958;32;20252;-64
2023/09/16 02:48:06;;;;;;;4.10;3.17;;;;;;;17.77;91.16;95384.97;4353721;32;20212;-64
2023/09/16 02:50:36;;;;;;;2.97;2.77;;;;;;;17.72;90.49;95379.81;4374170;32;20239;-64
2023/09/16 02:53:01;;;;;;;2.53;2.00;;;;;;;17.68;91.83;95395.03;4359548;32;20242;-64
2023/09/16 02:55:28;;;;;;;2.20;2.10;;;;;;;17.53;90.71;95391.09;4384043;32;20293;-64
2023/09/16 02:57:54;;;;;;;3.23;3.03;;;;;;;17.72;91.62;95397.81;4347670;32;20243;-64
2023/09/16 03:00:24;;;;;;;2.43;2.33;;;;;;;17.59;90.66;95394.34;4362307;32;20243;-63
2023/09/16 03:02:49;;;;;;;2.13;2.03;;;;;;;17.60;91.83;95395.91;4368431;32;20215;-64
2023/09/16 03:05:16;;;;;;;4.93;3.07;;;;;;;17.41;91.58;95398.37;4353068;32;20197;-64
2023/09/16 03:07:43;;;;;;;2.33;2.23;;;;;;;17.39;92.78;95395.25;4383621;32;20200;-64
2023/09/16 03:10:09;;;;;;;2.93;2.67;;;;;;;17.31;92.44;95404.94;4352050;32;20197;-64
2023/09/16 03:12:35;;;;;;;2.90;2.67;;;;;;;17.28;92.83;95399.44;4347737;32;20236;-64
2023/09/16 03:15:03;;;;;;;3.07;2.97;;;;;;;17.06;92.98;95400.66;4358907;32;20193;-64
2023/09/16 03:17:30;;;;;;;3.10;2.30;;;;;;;17.01;92.75;95399.00;4349413;32;20193;-64
2023/09/16 03:19:57;;;;;;;3.57;3.37;;;;;;;17.33;93.51;95389.31;4371698;32;20207;-64
2023/09/16 03:22:22;;;;;;;2.97;2.77;;;;;;;17.21;91.65;95400.03;4372460;32;20241;-64
2023/09/16 03:24:48;;;;;;;2.20;2.10;;;;;;;17.33;93.27;95391.97;4358259;32;20209;-64
2023/09/16 03:27:17;;;;;;;2.13;2.03;;;;;;;17.28;92.82;95391.41;4361776;32;20297;-64
2023/09/16 03:29:42;;;;;;;2.43;2.33;;;;;;;17.21;92.43;95393.88;4359012;32;20189;-64
2023/09/16 03:32:07;;;;;;;3.20;2.90;;;;;;;17.21;92.92;95396.56;4349389;32;20222;-63
2023/09/16 03:34:33;;;;;;;1.50;1.50;;;;;;;17.16;92.70;95392.97;4379828;32;20193;-64
2023/09/16 03:36:58;;;;;;;2.43;2.33;;;;;;;17.15;92.12;95388.72;4368522;32;20227;-64
2023/09/16 03:39:24;;;;;;;2.13;2.03;;;;;;;17.06;93.73;95388.03;4356324;32;20220;-64
2023/09/16 03:41:49;;;;;;;2.27;2.17;;;;;;;16.88;93.65;95380.50;4375788;32;20188;-64
2023/09/16 03:44:15;;;;;;;3.33;3.03;;;;;;;17.32;93.35;95389.63;4388890;32;20192;-64
2023/09/16 03:46:42;;;;;;;2.17;2.07;;;;;;;17.41;93.10;95382.28;4364636;32;20196;-64
2023/09/16 03:49:08;;;;;;;9.10;3.17;;;;;;;17.36;92.64;95377.91;4355978;32;20193;-63
2023/09/16 03:51:38;;;;;;;2.70;2.57;;;;;;;17.23;92.38;95381.72;4359423;32;20215;-64
2023/09/16 03:54:06;;;;;;;2.03;2.03;;;;;;;17.46;92.18;95382.81;4350796;32;20196;-64
2023/09/16 03:56:34;;;;;;;2.57;2.47;;;;;;;17.35;91.50;95380.94;4338419;32;20280;-63
2023/09/16 03:59:01;;;;;;;2.53;2.40;;;;;;;17.44;91.65;95379.72;4357458;32;20228;-64
2023/09/16 04:01:27;;;;;;;4.47;2.60;;;;;;;17.28;92.91;95375.31;4314481;32;20265;-64
2023/09/16 04:03:56;;;;;;;7.27;2.97;;;;;;;17.41;92.59;95377.69;4351907;32;20203;-64
2023/09/16 04:06:21;;;;;;;2.63;2.50;;;;;;;16.99;92.82;95382.44;4372629;32;20188;-64
2023/09/16 04:08:49;;;;;;;2.07;1.97;;;;;;;17.21;94.08;95391.19;4372243;32;20240;-64
2023/09/16 04:11:15;;;;;;;2.30;2.13;;;;;;;17.28;92.86;95378.00;4365085;32;20188;-64
2023/09/16 04:13:43;;;;;;;1.90;1.80;;;;;;;17.36;92.62;95380.59;4384379;32;20191;-63
2023/09/16 04:16:11;;;;;;;3.37;2.97;;;;;;;17.26;92.62;95377.56;4381558;32;20203;-63
2023/09/16 04:18:39;;;;;;;2.90;2.70;;;;;;;17.14;93.17;95381.78;4362762;32;20184;-65
2023/09/16 04:21:06;;;;;;;3.27;3.07;;;;;;;17.21;93.45;95383.16;4346527;32;20196;-64
2023/09/16 04:23:34;;;;;;;2.77;2.57;;;;;;;17.13;93.18;95382.13;4341312;32;20204;-64
2023/09/16 04:26:01;;;;;;;2.43;2.33;;;;;;;17.04;92.90;95382.22;4359438;32;20215;-64
2023/09/16 04:28:27;;;;;;;1.60;1.60;;;;;;;17.10;92.60;95388.94;4343065;32;20189;-65
2023/09/16 04:30:53;;;;;;;3.50;3.30;;;;;;;17.26;92.63;95382.91;4361491;32;20210;-65
2023/09/16 04:33:20;;;;;;;3.03;2.83;;;;;;;17.24;92.21;95391.31;4328766;32;20201;-64
2023/09/16 04:35:48;;;;;;;2.60;2.40;;;;;;;17.04;92.13;95394.88;4346936;32;20200;-64
2023/09/16 04:38:18;;;;;;;1.50;1.50;;;;;;;17.34;92.70;95390.09;4373722;32;20197;-64
2023/09/16 04:40:45;;;;;;;2.40;2.30;;;;;;;17.46;91.85;95392.75;4355390;32;20264;-64
2023/09/16 04:43:17;;;;;;;2.23;2.13;;;;;;;17.23;91.46;95391.66;4351934;32;20263;-63
2023/09/16 04:45:44;;;;;;;3.50;3.30;;;;;;;17.28;91.85;95388.72;4369874;32;20189;-64
2023/09/16 04:48:10;;;;;;;2.77;2.60;;;;;;;17.06;92.32;95393.38;4371955;32;20197;-64
2023/09/16 04:50:36;;;;;;;2.07;1.97;;;;;;;17.37;91.82;95392.09;4359339;32;20193;-65
2023/09/16 04:53:04;;;;;;;2.03;1.93;;;;;;;17.37;91.35;95381.38;4387396;32;20192;-65
2023/09/16 04:55:29;;;;;;;2.27;2.17;;;;;;;17.18;92.27;95385.38;4375080;32;20193;-65
2023/09/16 04:57:56;;;;;;;2.03;1.93;;;;;;;17.25;91.27;95379.44;4387040;32;20247;-64
2023/09/16 05:00:22;;;;;;;2.50;2.30;;;;;;;17.43;91.65;95383.50;4366150;32;20192;-65
2023/09/16 05:02:50;;;;;;;1.67;1.67;;;;;;;17.42;91.36;95383.84;4345144;32;20194;-64
2023/09/16 05:05:18;;;;;;;2.10;2.00;;;;;;;17.36;91.47;95377.91;4362886;32;20185;-64
2023/09/16 05:07:45;;;;;;;1.83;1.73;;;;;;;16.92;92.08;95382.19;4376141;32;20227;-64
2023/09/16 05:10:12;;;;;;;2.43;2.33;;;;;;;17.20;91.96;95370.88;4381155;32;20215;-64
2023/09/16 05:12:38;;;;;;;1.50;1.50;;;;;;;17.12;92.64;95372.53;4361811;32;20293;-63
2023/09/16 05:15:04;;;;;;;2.40;2.30;;;;;;;17.25;92.21;95371.41;4360915;32;20252;-65
2023/09/16 05:17:29;;;;;;;2.13;2.03;;;;;;;17.26;91.68;95374.87;4338717;32;20441;-65
2023/09/16 05:19:56;;;;;;;2.13;2.03;;;;;;;16.96;92.57;95380.44;4363931;32;20204;-65
2023/09/16 05:22:21;;;;;;;2.03;1.93;;;;;;;16.95;92.68;95376.19;4365833;32;20197;-65
2023/09/16 05:24:47;;;;;;;3.23;3.03;;;;;;;16.82;92.14;95377.28;4367436;32;20225;-65
2023/09/16 05:27:12;;;;;;;1.33;1.33;;;;;;;17.05;92.77;95369.59;4390283;32;20203;-65
2023/09/16 05:29:39;;;;;;;1.07;1.07;;;;;;;16.96;92.87;95375.06;4374178;32;20236;-64
2023/09/16 05:32:05;;;;;;;3.90;3.07;;;;;;;16.93;93.14;95377.62;4354465;32;20208;-65
2023/09/16 05:34:30;;;;;;;2.17;2.07;;;;;;;17.15;92.10;95367.28;4363897;32;20213;-65
2023/09/16 05:36:57;;;;;;;1.93;1.83;;;;;;;17.24;92.00;95379.81;4341830;32;20218;-65
2023/09/16 05:39:23;;;;;;;3.50;3.20;;;;;;;17.30;91.20;95371.19;4362790;32;20219;-65
2023/09/16 05:41:49;;;;;;;2.10;2.00;;;;;;;17.16;91.39;95382.25;4370938;32;20243;-65
2023/09/16 05:44:20;;;;;;;2.67;2.57;;;;;;;16.97;93.38;95382.00;4361962;32;20265;-65
2023/09/16 05:46:45;;;;;;;2.47;2.30;;;;;;;17.21;92.30;95375.09;4356848;32;20192;-65
2023/09/16 05:49:12;;;;;;;2.43;2.33;;;;;;;17.17;91.92;95375.78;4367475;32;20188;-64
2023/09/16 05:51:37;;;;;;;2.47;2.30;;;;;;;17.25;91.67;95370.66;4376442;32;20200;-64
2023/09/16 05:54:06;;;;;;;1.83;1.73;;;;;;;17.19;92.17;95372.75;4350569;32;20197;-65
2023/09/16 05:56:37;;;;;;;2.73;2.53;;;;;;;17.23;91.87;95383.59;4345508;32;20189;-65
2023/09/16 05:59:05;;;;;;;1.83;1.73;;;;;;;17.44;91.83;95373.56;4375890;32;20207;-65
2023/09/16 06:01:30;;;;;;;1.80;1.70;;;;;;;17.42;91.74;95384.63;4358736;32;20265;-65
2023/09/16 06:03:56;;;;;;;1.57;1.57;;;;;;;17.49;91.23;95384.06;4374298;32;20207;-65
2023/09/16 06:06:22;;;;;;;2.17;2.07;;;;;;;17.52;91.17;95378.00;4334641;32;20208;-65
2023/09/16 06:08:47;;;;;;;1.67;1.57;;;;;;;17.64;90.88;95371.88;4371858;32;20187;-65
2023/09/16 06:11:13;;;;;;;4.90;2.17;;;;;;;17.49;90.68;95379.47;4378600;32;20205;-65
2023/09/16 06:13:38;;;;;;;1.80;1.80;;;;;;;17.60;91.28;95379.03;4369140;32;20242;-64
2023/09/16 06:16:07;;;;;;;2.30;2.20;;;;;;;17.63;90.92;95384.50;4368357;32;20197;-65
2023/09/16 06:18:32;;;;;;;1.30;1.30;;;;;;;17.37;90.58;95382.16;4378317;32;20254;-65
2023/09/16 06:21:00;;;;;;;1.83;1.77;;;;;;;17.34;91.76;95382.03;4357714;32;20292;-65
2023/09/16 06:23:27;;;;;;;1.67;1.63;;;;;;;17.33;91.03;95386.62;4365844;32;20197;-65
2023/09/16 06:25:55;;;;;;;2.60;2.40;;;;;;;17.48;91.68;95385.94;4378923;32;20197;-65
2023/09/16 06:28:21;;;;;;;2.43;2.33;;;;;;;17.63;90.35;95384.50;4361308;32;20208;-65
2023/09/16 06:30:48;;;;;;;2.37;2.27;;;;;;;17.64;90.53;95382.63;4377246;32;20212;-65
2023/09/16 06:33:13;;;;;;;2.63;2.43;;;;;;;17.68;90.56;95386.19;4373750;32;20200;-65
2023/09/16 06:35:38;;;;;;;2.30;2.13;;;;;;;17.66;91.47;95381.19;4366206;32;20204;-62
2023/09/16 06:38:04;;;;;;;2.93;2.83;;;;;;;17.52;92.00;95383.38;4372535;32;20216;-64
2023/09/16 06:40:30;;;;;;;2.30;2.20;;;;;;;17.45;91.97;95383.97;4378823;32;20193;-63
2023/09/16 06:42:57;;;;;;;2.33;2.23;;;;;;;17.30;92.21;95375.78;4381335;32;20196;-63
2023/09/16 06:45:24;;;;;;;2.53;2.43;;;;;;;17.47;92.54;95375.56;4367752;32;20375;-64
2023/09/16 06:47:51;;;;;;;2.63;2.53;;;;;;;17.66;92.33;95378.50;4352232;32;20200;-64
2023/09/16 06:50:21;;;;;;;2.43;2.23;;;;;;;17.76;91.49;95372.66;4361729;32;20196;-64
2023/09/16 06:52:48;;;;;;;4.13;3.93;;;;;;;17.74;91.75;95380.28;4354800;32;20192;-64
2023/09/16 06:55:15;;;;;;;2.03;1.90;;;;;;;17.78;91.04;95373.13;4370855;32;20197;-64
2023/09/16 06:57:42;;;;;;;2.67;2.57;;;;;;;17.79;91.54;95376.59;4366828;32;20184;-64
2023/09/16 07:00:10;;;;;;;2.20;2.10;;;;;;;17.87;91.83;95368.38;4372784;32;20185;-63
2023/09/16 07:02:36;;;;;;;2.07;1.97;;;;;;;17.89;92.30;95369.97;4367905;32;20181;-64
2023/09/16 07:05:02;;;;;;;2.70;2.50;;;;;;;17.96;91.93;95370.19;4366922;32;20189;-65
2023/09/16 07:07:28;;;;;;;4.20;2.33;;;;;;;18.00;91.80;95365.69;4353258;32;20276;-64
2023/09/16 07:09:57;;;;;;;2.63;2.53;;;;;;;18.06;91.97;95369.72;4352825;32;20227;-64
2023/09/16 07:12:26;;;;;;;2.33;2.23;;;;;;;18.09;91.02;95379.75;4347599;32;20215;-64
2023/09/16 07:14:53;;;;;;;2.70;2.43;;;;;;;18.05;91.44;95378.91;4376556;32;20215;-64
2023/09/16 07:17:19;;;;;;;5.70;3.67;;;;;;;18.13;91.98;95380.66;4364019;32;20232;-64
2023/09/16 07:19:45;;;;;;;2.27;2.17;;;;;;;18.20;92.23;95383.56;4374870;32;20222;-64
2023/09/16 07:22:10;;;;;;;2.10;1.93;;;;;;;18.18;92.03;95383.09;4351815;32;20193;-64
2023/09/16 07:24:41;;;;;;;2.60;2.50;;;;;;;18.25;91.97;95391.38;4373630;32;20254;-63
2023/09/16 07:27:12;;;;;;;2.73;2.53;;;;;;;18.33;92.82;95403.09;4357251;32;20214;-63
2023/09/16 07:29:37;;;;;;;3.10;2.90;;;;;;;18.39;92.03;95394.47;4351522;32;20196;-64
2023/09/16 07:32:04;;;;;;;2.37;2.27;;;;;;;18.35;92.21;95396.25;4348469;32;20223;-64
2023/09/16 07:34:30;;;;;;;3.10;2.90;;;;;;;18.44;91.47;95399.59;4349617;32;20263;-64
2023/09/16 07:36:56;;;;;;;3.20;2.97;;;;;;;18.46;91.49;95400.03;4353635;32;20192;-64
2023/09/16 07:39:23;;;;;;;2.10;2.00;;;;;;;18.54;91.88;95401.78;4342406;32;20185;-64
2023/09/16 07:41:48;;;;;;;2.53;2.40;;;;;;;18.48;91.84;95403.19;4370397;32;20211;-64
2023/09/16 07:44:13;;;;;;;2.33;2.13;;;;;;;18.48;92.59;95397.81;4388070;32;20196;-63
2023/09/16 07:46:38;;;;;;;1.53;1.53;;;;;;;18.53;92.13;95399.44;4392964;32;20206;-63
2023/09/16 07:49:04;;;;;;;2.43;2.33;;;;;;;18.61;92.35;95400.47;4391839;32;20185;-64
2023/09/16 07:51:29;;;;;;;2.07;1.97;;;;;;;18.63;92.07;95399.00;4392851;32;20196;-64
2023/09/16 07:53:55;;;;;;;2.50;2.30;;;;;;;18.67;91.68;95404.47;4392657;32;20220;-64
2023/09/16 07:56:20;;;;;;;1.63;1.53;;;;;;;18.75;91.05;95406.22;4390959;32;20180;-65
2023/09/16 07:58:47;;;;;;;2.40;2.30;;;;;;;18.73;91.41;95403.88;4386202;32;20318;-65
2023/09/16 08:01:12;;;;;;;2.13;2.03;;;;;;;18.75;91.67;95403.53;4371556;32;20196;-64
2023/09/16 08:03:38;;;;;;;2.00;1.90;;;;;;;18.83;91.55;95407.97;4391140;32;20241;-65
2023/09/16 08:06:04;;;;;;;3.27;3.07;;;;;;;18.90;91.46;95408.19;4379161;32;20184;-65
2023/09/16 08:08:29;;;;;;;3.03;2.83;;;;;;;18.94;91.13;95419.78;4390488;32;20189;-65
2023/09/16 08:10:55;;;;;;;2.57;2.47;;;;;;;19.01;90.80;95409.22;4385458;32;20257;-65
2023/09/16 08:13:20;;;;;;;2.93;2.83;;;;;;;19.02;91.11;95418.88;4388341;32;20200;-64
2023/09/16 08:15:46;;;;;;;1.70;1.70;;;;;;;19.07;91.19;95415.94;4382992;32;20196;-64
2023/09/16 08:18:11;;;;;;;3.27;3.10;;;;;;;19.10;90.61;95412.56;4392868;32;20184;-64
2023/09/16 08:20:37;;;;;;;2.27;2.13;;;;;;;19.12;90.63;95404.91;4390389;32;20196;-65
2023/09/16 08:23:02;;;;;;;3.53;3.33;;;;;;;19.17;90.27;95399.28;4391663;32;20262;-64
2023/09/16 08:25:27;;;;;;;7.57;5.67;;;;;;;19.25;90.04;95396.78;4374060;32;20269;-65
2023/09/16 08:27:53;;;;;;;3.63;3.03;;;;;;;19.28;89.82;95396.87;4375971;32;20253;-64
2023/09/16 08:30:18;;;;;;;3.10;2.90;;;;;;;19.34;89.79;95391.97;4389059;32;20265;-65
2023/09/16 08:32:44;;;;;;;5.57;2.33;;;;;;;19.37;89.58;95396.66;4387345;32;20188;-64
2023/09/16 08:35:09;;;;;;;2.13;2.03;;;;;;;19.43;89.16;95403.38;4389388;32;20204;-64
2023/09/16 08:37:35;;;;;;;2.20;2.10;;;;;;;19.48;88.93;95397.72;4388874;32;20207;-64
2023/09/16 08:40:01;;;;;;;1.93;1.83;;;;;;;19.53;88.57;95392.13;4385915;32;20211;-64
2023/09/16 08:42:40;;;;;;;2.27;2.17;;;;;;;19.53;88.55;95402.88;4377293;32;20201;-64
2023/09/16 08:45:10;;;;;;;2.53;2.37;;;;;;;19.52;88.42;95395.94;4387171;32;20215;-64
2023/09/16 08:47:51;;;;;;;3.00;2.77;;;;;;;19.57;88.94;95390.28;4391688;32;20238;-64
2023/09/16 08:50:20;;;;;;;2.70;2.50;;;;;;;19.65;88.12;95392.00;4378288;32;20206;-65
2023/09/16 08:52:50;;;;;;;1.80;1.80;;;;;;;19.69;87.74;95390.19;4392195;32;20196;-64
2023/09/16 08:55:16;;;;;;;1.37;1.37;;;;;;;19.70;88.14;95397.13;4378231;32;20214;-63
2023/09/16 08:57:47;;;;;;;1.73;1.73;;;;;;;19.76;87.80;95395.72;4387796;32;20233;-62
2023/09/16 09:00:14;;;;;;;2.00;1.90;;;;;;;19.82;87.09;95391.63;4377231;32;20196;-63
2023/09/16 09:02:40;;;;;;;3.57;2.47;;;;;;;19.84;87.07;95397.44;4374503;32;20228;-63
2023/09/16 09:05:07;;;;;;;2.50;2.30;;;;;;;19.89;86.71;95404.50;4370170;32;20219;-64
2023/09/16 09:07:40;;;;;;;2.90;2.80;;;;;;;19.87;86.50;95402.16;4389770;32;20210;-64
2023/09/16 09:10:06;;;;;;;2.07;2.07;;;;;;;19.89;86.82;95399.88;4376625;32;20207;-63
2023/09/16 09:12:37;;;;;;;2.83;2.53;;;;;;;19.94;86.52;95392.66;4376890;32;20201;-63
2023/09/16 09:15:06;;;;;;;2.17;2.07;;;;;;;20.01;86.69;95398.19;4368846;32;20231;-63
2023/09/16 09:17:57;;;;;;;1.60;1.57;;;;;;;20.07;86.27;95400.28;4383069;32;20193;-63
2023/09/16 09:20:27;;;;;;;3.60;2.20;;;;;;;20.08;86.26;95403.75;4383676;32;20200;-63
2023/09/16 09:22:54;;;;;;;3.03;2.83;;;;;;;20.12;86.68;95402.69;4386345;32;20196;-63
2023/09/16 09:25:25;;;;;;;2.70;2.50;;;;;;;20.15;86.91;95401.22;4371714;32;20231;-64
2023/09/16 09:27:51;;;;;;;1.93;1.83;;;;;;;20.20;86.23;95400.94;4385371;32;20218;-63
2023/09/16 09:30:26;;;;;;;2.27;2.07;;;;;;;20.20;85.12;95400.94;4384456;32;20193;-63
2023/09/16 09:32:55;;;;;;;2.10;2.00;;;;;;;20.23;85.46;95405.63;4386333;32;20214;-63
2023/09/16 09:35:25;;;;;;;2.67;2.23;;;;;;;20.40;84.40;95410.63;4382993;32;20232;-63
2023/09/16 09:37:51;;;;;;;1.70;1.70;;;;;;;20.38;84.71;95404.81;4388096;32;20216;-63
2023/09/16 09:40:18;;;;;;;2.07;1.97;;;;;;;20.55;84.17;95398.25;4389952;32;20184;-63
2023/09/16 09:42:45;;;;;;;1.40;1.30;;;;;;;20.62;84.35;95402.97;4373031;32;20200;-64
2023/09/16 09:45:11;;;;;;;1.80;1.70;;;;;;;20.54;85.10;95402.06;4357807;32;20259;-63
2023/09/16 09:47:38;;;;;;;1.87;1.77;;;;;;;20.56;84.45;95397.09;4359377;32;20188;-64
2023/09/16 09:50:06;;;;;;;1.80;1.70;;;;;;;20.61;83.87;95398.72;4361037;32;20231;-63
2023/09/16 09:52:32;;;;;;;1.40;1.40;;;;;;;20.65;83.80;95391.47;4376831;32;20302;-63
2023/09/16 09:54:58;;;;;;;1.77;1.67;;;;;;;20.90;82.72;95392.75;4378338;32;20284;-63
2023/09/16 09:57:25;;;;;;;3.23;2.67;;;;;;;20.91;83.15;95399.69;4375437;32;20210;-63
2023/09/16 09:59:50;;;;;;;3.13;2.93;;;;;;;20.94;82.58;95396.28;4362819;32;20219;-63
2023/09/16 10:02:16;;;;;;;2.80;2.67;;;;;;;21.00;81.06;95402.94;4363826;32;20193;-63
2023/09/16 10:04:41;;;;;;;1.60;1.53;;;;;;;20.98;81.24;95397.13;4376591;32;20189;-63
2023/09/16 10:07:07;;;;;;;2.13;2.03;;;;;;;21.03;80.03;95390.66;4380160;32;20218;-63
2023/09/16 10:09:32;;;;;;;2.17;2.07;;;;;;;21.05;80.16;95393.78;4360084;32;20256;-63
2023/09/16 10:12:03;;;;;;;2.27;2.17;;;;;;;21.17;79.22;95391.69;4359015;32;20284;-63
2023/09/16 10:14:30;;;;;;;3.50;2.50;;;;;;;21.31;78.96;95385.00;4359353;32;20276;-63
2023/09/16 10:16:57;;;;;;;1.40;1.30;;;;;;;21.35;79.07;95391.25;4326315;32;20193;-62
2023/09/16 10:19:26;;;;;;;2.63;2.47;;;;;;;21.42;77.58;95380.56;4361114;32;20208;-63
2023/09/16 10:21:53;;;;;;;1.70;1.60;;;;;;;21.41;77.50;95379.78;4362032;32;20206;-63
2023/09/16 10:24:21;;;;;;;1.53;1.53;;;;;;;21.27;78.94;95383.03;4357014;32;20189;-62
2023/09/16 10:26:51;;;;;;;1.53;1.53;;;;;;;21.15;79.50;95379.69;4352782;32;20216;-63
2023/09/16 10:29:18;;;;;;;1.23;1.23;;;;;;;21.26;78.63;95378.75;4345855;32;20218;-64
2023/09/16 10:31:49;;;;;;;1.63;1.50;;;;;;;21.36;79.28;95388.19;4338585;32;20223;-63
2023/09/16 10:34:19;;;;;;;1.57;1.50;;;;;;;21.42;78.40;95385.94;4336044;32;20185;-62
2023/09/16 10:36:52;;;;;;;2.13;2.03;;;;;;;21.54;77.06;95377.69;4371708;32;20202;-63
2023/09/16 10:39:21;;;;;;;1.63;1.63;;;;;;;21.57;77.27;95376.97;4324723;32;20190;-63
2023/09/16 10:41:50;;;;;;;1.13;1.13;;;;;;;21.50;76.93;95377.62;4332770;32;20207;-63
2023/09/16 10:44:21;;;;;;;1.53;1.53;;;;;;;21.46;77.90;95376.00;4359646;32;20197;-63
2023/09/16 10:46:50;;;;;;;1.70;1.60;;;;;;;21.46;76.60;95376.00;4349793;32;20193;-63
2023/09/16 10:49:22;;;;;;;1.67;1.67;;;;;;;21.65;76.37;95375.13;4346386;32;20252;-63
2023/09/16 10:51:50;;;;;;;1.73;1.73;;;;;;;21.60;76.57;95370.84;4299044;32;20197;-62
2023/09/16 10:54:48;;;;;;;1.40;1.40;;;;;;;21.61;76.60;95373.16;4302940;32;20214;-63
2023/09/16 10:57:43;;;;;;;2.20;2.10;;;;;;;21.82;76.24;95380.78;4320372;32;20232;-62
2023/09/16 11:00:10;;;;;;;1.93;1.83;;;;;;;21.88;76.05;95382.06;4299960;32;20307;-62
2023/09/16 11:02:49;;;;;;;2.17;2.07;;;;;;;21.78;75.65;95377.28;4325859;32;20202;-62
2023/09/16 11:05:16;;;;;;;1.70;1.60;;;;;;;21.94;74.59;95383.31;4323499;32;20294;-62
2023/09/16 11:07:43;;;;;;;1.80;1.73;;;;;;;22.21;73.55;95373.28;4291171;32;20229;-63
2023/09/16 11:10:12;;;;;;;1.37;1.37;;;;;;;22.26;73.09;95382.97;4326121;32;20256;-63
2023/09/16 11:12:42;;;;;;;2.47;2.27;;;;;;;22.27;73.32;95382.63;4330297;32;20232;-62
2023/09/16 11:15:08;;;;;;;1.83;1.80;;;;;;;22.16;74.54;95378.22;4306340;32;20282;-63
2023/09/16 11:17:40;;;;;;;1.43;1.43;;;;;;;22.07;74.13;95370.38;4311008;32;20265;-63
2023/09/16 11:20:31;;;;;;;2.33;2.23;;;;;;;22.05;74.36;95374.59;4334624;32;20237;-63
2023/09/16 11:23:01;;;;;;;1.70;1.63;;;;;;;22.03;73.87;95364.12;4326315;32;20197;-63
2023/09/16 11:25:43;;;;;;;1.67;1.57;;;;;;;21.99;73.66;95360.59;4317331;32;20247;-63
2023/09/16 11:28:18;;;;;;;1.20;1.20;;;;;;;22.01;73.69;95360.28;4298464;32;20259;-63
2023/09/16 11:31:13;;;;;;;1.70;1.60;;;;;;;22.03;74.49;95363.38;4318260;32;20272;-63
2023/09/16 11:33:42;;;;;;;1.20;1.20;;;;;;;22.29;71.61;95374.16;4296838;32;20298;-62
2023/09/16 11:36:18;;;;;;;2.73;2.63;;;;;;;22.46;71.28;95367.41;4328310;32;20251;-61